Time;durP1;ratioP1;P1;durP2;ratioP2;P2;SDS_P1;SDS_P2;PMS_P1;PMS_P2;Temp;Humidity;BMP_temperature;BMP_pressure;BME280_temperature;BME280_humidity;BME280_pressure;Samples;Min_cycle;Max_cycle;Signal;HPM_P1;HPM_P2
2021/12/31 00:00:35;;;;;;;48.27;25.87;;;;;;;;;;4411794;32;20303;-81
2021/12/31 00:03:01;;;;;;;43.90;24.23;;;;;;;;;;4396536;32;20232;-82
2021/12/31 00:05:26;;;;;;;52.47;24.63;;;;;;;;;;4410560;32;20206;-83
2021/12/31 00:07:52;;;;;;;53.60;26.43;;;;;;;;;;4397640;32;20218;-82
2021/12/31 00:10:17;;;;;;;93.73;49.40;;;;;;;;;;4409841;32;20667;-83
2021/12/31 00:12:44;;;;;;;81.50;41.87;;;;;;;;;;4409675;32;20209;-83
2021/12/31 00:15:10;;;;;;;53.17;28.87;;;;;;;;;;4384732;32;20264;-84
2021/12/31 00:17:36;;;;;;;41.37;22.70;;;;;;;;;;4412721;32;20190;-83
2021/12/31 00:20:07;;;;;;;47.60;26.67;;;;;;;;;;4395817;32;20244;-81
2021/12/31 00:22:59;;;;;;;47.50;27.60;;;;;;;;;;4409314;32;20254;-82
2021/12/31 00:25:19;;;;;;;52.03;28.50;;;;;;;;;;4407543;32;20329;-84
2021/12/31 00:27:44;;;;;;;49.33;27.00;;;;;;;;;;4408597;32;20448;-89
2021/12/31 00:30:10;;;;;;;44.70;25.20;;;;;;;;;;4409481;32;20715;-83
2021/12/31 00:32:36;;;;;;;45.97;23.13;;;;;;;;;;4407741;32;20194;-82
2021/12/31 00:35:02;;;;;;;47.73;25.47;;;;;;;;;;4408218;32;20194;-83
2021/12/31 00:37:30;;;;;;;52.43;25.47;;;;;;;;;;4412330;32;20388;-86
2021/12/31 00:39:57;;;;;;;41.73;22.93;;;;;;;;;;4394688;32;20289;-86
2021/12/31 00:42:23;;;;;;;55.37;28.73;;;;;;;;;;4394167;32;20213;-86
2021/12/31 00:44:48;;;;;;;43.33;24.37;;;;;;;;;;4407676;32;20275;-84
2021/12/31 00:47:14;;;;;;;43.13;24.53;;;;;;;;;;4394064;32;20623;-85
2021/12/31 00:49:40;;;;;;;62.57;33.40;;;;;;;;;;4393444;32;20221;-88
2021/12/31 00:52:07;;;;;;;33.63;19.00;;;;;;;;;;4393670;32;20281;-82
2021/12/31 00:54:33;;;;;;;13.90;7.53;;;;;;;;;;4406893;32;20301;-87
2021/12/31 00:57:03;;;;;;;22.30;12.57;;;;;;;;;;4406792;32;20600;-85
2021/12/31 00:59:31;;;;;;;33.83;17.70;;;;;;;;;;4407176;32;20251;-84
2021/12/31 01:01:59;;;;;;;29.20;16.53;;;;;;;;;;4404089;32;20405;-83
2021/12/31 01:04:25;;;;;;;20.97;12.77;;;;;;;;;;4407264;32;20296;-85
2021/12/31 01:06:51;;;;;;;23.43;14.03;;;;;;;;;;4407631;32;20206;-86
2021/12/31 01:09:16;;;;;;;35.83;17.33;;;;;;;;;;4408542;32;20530;-84
2021/12/31 01:11:46;;;;;;;28.50;16.00;;;;;;;;;;4407949;32;20228;-84
2021/12/31 01:17:03;;;;;;;45.67;21.63;;;;;;;;;;4406697;32;20221;-83
2021/12/31 01:22:31;;;;;;;47.47;22.70;;;;;;;;;;4407001;32;20251;-83
2021/12/31 01:24:57;;;;;;;55.60;22.97;;;;;;;;;;4406960;32;20193;-84
2021/12/31 01:27:23;;;;;;;50.20;24.83;;;;;;;;;;4406644;32;20605;-84
2021/12/31 01:29:50;;;;;;;53.23;26.10;;;;;;;;;;4406767;32;20336;-85
2021/12/31 01:32:16;;;;;;;58.63;27.63;;;;;;;;;;4406420;32;20288;-83
2021/12/31 01:34:41;;;;;;;54.07;25.20;;;;;;;;;;4407241;32;20504;-83
2021/12/31 01:37:08;;;;;;;49.70;23.13;;;;;;;;;;4406234;32;20281;-82
2021/12/31 01:39:34;;;;;;;56.97;25.63;;;;;;;;;;4406628;32;20201;-84
2021/12/31 01:42:02;;;;;;;44.57;21.67;;;;;;;;;;4406666;32;20217;-85
2021/12/31 01:44:39;;;;;;;42.07;20.37;;;;;;;;;;4406517;32;20213;-82
2021/12/31 01:47:11;;;;;;;48.73;23.57;;;;;;;;;;4406343;32;20334;-85
2021/12/31 01:49:40;;;;;;;35.17;17.20;;;;;;;;;;4406216;32;20194;-85
2021/12/31 01:52:08;;;;;;;33.97;17.70;;;;;;;;;;4392707;32;20326;-84
2021/12/31 01:54:34;;;;;;;41.53;19.27;;;;;;;;;;4406665;32;20198;-85
2021/12/31 01:57:06;;;;;;;28.73;16.83;;;;;;;;;;4406451;32;20225;-81
2021/12/31 01:59:35;;;;;;;31.70;18.73;;;;;;;;;;4406728;32;20251;-82
2021/12/31 02:02:00;;;;;;;42.10;21.33;;;;;;;;;;4406365;32;20229;-83
2021/12/31 02:04:27;;;;;;;39.10;19.90;;;;;;;;;;4406161;32;20190;-84
2021/12/31 02:06:53;;;;;;;40.73;18.83;;;;;;;;;;4406136;32;20210;-82
2021/12/31 02:09:18;;;;;;;36.33;18.37;;;;;;;;;;4406271;32;20224;-84
2021/12/31 02:11:44;;;;;;;31.20;15.53;;;;;;;;;;4406475;32;20231;-82
2021/12/31 02:14:09;;;;;;;29.77;16.20;;;;;;;;;;4392444;32;20229;-83
2021/12/31 02:16:35;;;;;;;24.97;14.47;;;;;;;;;;4406196;32;20303;-84
2021/12/31 02:19:13;;;;;;;28.00;15.93;;;;;;;;;;4406036;32;20347;-87
2021/12/31 02:21:42;;;;;;;27.63;15.20;;;;;;;;;;4406349;32;20410;-83
2021/12/31 02:24:08;;;;;;;30.60;15.30;;;;;;;;;;4406554;32;20219;-85
2021/12/31 02:26:35;;;;;;;31.23;15.90;;;;;;;;;;4406584;32;20535;-83
2021/12/31 02:29:00;;;;;;;32.40;17.53;;;;;;;;;;4406217;32;20220;-87
2021/12/31 02:31:25;;;;;;;31.73;16.70;;;;;;;;;;4406176;32;20206;-82
2021/12/31 02:33:51;;;;;;;27.30;15.03;;;;;;;;;;4406146;32;20198;-84
2021/12/31 02:36:19;;;;;;;31.37;16.03;;;;;;;;;;4405854;32;20270;-83
2021/12/31 02:38:45;;;;;;;34.37;17.67;;;;;;;;;;4406096;32;20228;-84
2021/12/31 02:41:11;;;;;;;34.00;16.97;;;;;;;;;;4406307;32;20205;-85
2021/12/31 02:43:38;;;;;;;33.03;19.93;;;;;;;;;;4405833;32;20571;-83
2021/12/31 02:46:04;;;;;;;59.37;28.73;;;;;;;;;;4405913;32;20228;-86
2021/12/31 02:48:29;;;;;;;55.67;30.93;;;;;;;;;;4406847;32;20221;-85
2021/12/31 02:50:57;;;;;;;56.03;31.23;;;;;;;;;;4410901;32;20325;-82
2021/12/31 02:53:35;;;;;;;62.00;31.27;;;;;;;;;;4397695;32;20230;-84
2021/12/31 02:56:04;;;;;;;45.30;25.33;;;;;;;;;;4411682;32;20535;-83
2021/12/31 02:58:32;;;;;;;49.97;27.13;;;;;;;;;;4411753;32;20225;-85
2021/12/31 03:00:57;;;;;;;54.23;29.40;;;;;;;;;;4410977;32;20256;-84
2021/12/31 03:03:24;;;;;;;59.20;29.53;;;;;;;;;;4411651;32;20617;-85
2021/12/31 03:05:54;;;;;;;52.30;28.50;;;;;;;;;;4410765;32;20213;-84
2021/12/31 03:08:22;;;;;;;76.13;43.93;;;;;;;;;;4410554;32;20205;-85
2021/12/31 03:10:48;;;;;;;77.17;46.43;;;;;;;;;;4397001;32;20248;-85
2021/12/31 03:13:15;;;;;;;53.83;37.23;;;;;;;;;;4410703;32;20217;-83
2021/12/31 03:15:41;;;;;;;41.97;24.43;;;;;;;;;;4410377;32;20623;-84
2021/12/31 03:18:09;;;;;;;45.20;28.00;;;;;;;;;;4410566;32;20198;-84
2021/12/31 03:20:38;;;;;;;29.47;17.57;;;;;;;;;;4410885;32;20220;-82
2021/12/31 03:23:05;;;;;;;26.30;16.30;;;;;;;;;;4410937;32;20194;-83
2021/12/31 03:25:31;;;;;;;44.13;23.50;;;;;;;;;;4410846;32;20536;-84
2021/12/31 03:27:57;;;;;;;48.10;27.30;;;;;;;;;;4411060;32;20232;-83
2021/12/31 03:30:22;;;;;;;34.80;18.23;;;;;;;;;;4411018;32;20296;-84
2021/12/31 03:32:48;;;;;;;35.50;19.80;;;;;;;;;;4411018;32;20201;-84
2021/12/31 03:35:14;;;;;;;37.50;19.40;;;;;;;;;;4410465;32;20272;-83
2021/12/31 03:37:40;;;;;;;30.27;16.73;;;;;;;;;;4396586;32;20243;-83
2021/12/31 03:40:07;;;;;;;29.63;16.93;;;;;;;;;;4410530;32;20241;-83
2021/12/31 03:42:33;;;;;;;34.23;16.43;;;;;;;;;;4411007;32;20323;-84
2021/12/31 03:44:58;;;;;;;30.50;17.73;;;;;;;;;;4410600;32;20218;-84
2021/12/31 03:47:24;;;;;;;27.23;15.93;;;;;;;;;;4411175;32;20201;-82
2021/12/31 03:49:49;;;;;;;35.17;18.53;;;;;;;;;;4410222;32;20229;-85
2021/12/31 03:52:15;;;;;;;33.50;18.53;;;;;;;;;;4410623;32;20768;-83
2021/12/31 03:54:40;;;;;;;31.47;15.60;;;;;;;;;;4410250;32;20287;-86
2021/12/31 03:57:06;;;;;;;36.30;18.83;;;;;;;;;;4410705;32;20194;-83
2021/12/31 03:59:31;;;;;;;29.23;17.03;;;;;;;;;;4410854;32;20213;-84
2021/12/31 04:01:57;;;;;;;30.53;17.50;;;;;;;;;;4383192;32;20615;-83
2021/12/31 04:04:22;;;;;;;54.83;27.20;;;;;;;;;;4409507;32;20217;-83
2021/12/31 04:06:48;;;;;;;36.70;20.90;;;;;;;;;;4409232;32;20228;-83
2021/12/31 04:09:13;;;;;;;43.60;23.20;;;;;;;;;;4409999;32;20279;-85
2021/12/31 04:11:40;;;;;;;46.07;25.23;;;;;;;;;;4408443;32;20202;-87
2021/12/31 04:14:05;;;;;;;50.03;27.90;;;;;;;;;;4407677;32;20284;-86
2021/12/31 04:16:32;;;;;;;42.20;23.03;;;;;;;;;;4407818;32;20235;-87
2021/12/31 04:18:57;;;;;;;48.70;24.87;;;;;;;;;;4408643;32;20307;-86
2021/12/31 04:21:24;;;;;;;44.17;22.43;;;;;;;;;;4407709;32;20197;-85
2021/12/31 04:24:05;;;;;;;26.00;15.40;;;;;;;;;;4407650;32;20217;-86
2021/12/31 04:26:30;;;;;;;24.47;14.00;;;;;;;;;;4407618;32;20251;-86
2021/12/31 04:28:56;;;;;;;35.37;17.83;;;;;;;;;;4407532;32;20218;-85
2021/12/31 04:31:22;;;;;;;41.73;20.67;;;;;;;;;;4408703;32;20469;-85
2021/12/31 04:33:47;;;;;;;31.60;18.77;;;;;;;;;;4407819;32;20272;-88
2021/12/31 04:36:13;;;;;;;28.77;17.90;;;;;;;;;;4407687;32;20316;-83
2021/12/31 04:38:38;;;;;;;30.10;15.77;;;;;;;;;;4406984;32;20243;-84
2021/12/31 04:41:03;;;;;;;23.07;12.67;;;;;;;;;;4406425;32;20198;-86
2021/12/31 04:43:29;;;;;;;17.97;10.23;;;;;;;;;;4407498;32;20274;-84
2021/12/31 04:45:55;;;;;;;9.83;5.80;;;;;;;;;;4394705;32;20354;-88
2021/12/31 04:48:20;;;;;;;6.60;4.87;;;;;;;;;;4409237;32;20193;-85
2021/12/31 04:50:46;;;;;;;15.63;8.83;;;;;;;;;;4407582;32;20220;-87
2021/12/31 04:53:12;;;;;;;20.97;10.27;;;;;;;;;;4407940;32;20197;-84
2021/12/31 04:55:37;;;;;;;32.97;12.27;;;;;;;;;;4407714;32;20228;-84
2021/12/31 04:58:03;;;;;;;28.77;14.97;;;;;;;;;;4407085;32;20303;-86
2021/12/31 05:00:28;;;;;;;30.27;14.63;;;;;;;;;;4406820;32;20283;-83
2021/12/31 05:02:54;;;;;;;26.40;13.13;;;;;;;;;;4394014;32;20225;-86
2021/12/31 05:05:19;;;;;;;31.20;14.10;;;;;;;;;;4407326;32;20217;-84
2021/12/31 05:07:45;;;;;;;31.47;15.57;;;;;;;;;;4407096;32;20306;-83
2021/12/31 05:10:10;;;;;;;57.30;23.83;;;;;;;;;;4406746;32;20222;-86
2021/12/31 05:12:38;;;;;;;52.97;23.23;;;;;;;;;;4406160;32;20628;-85
2021/12/31 05:15:09;;;;;;;44.60;22.07;;;;;;;;;;4406734;32;20221;-82
2021/12/31 05:17:35;;;;;;;54.27;23.07;;;;;;;;;;4407076;32;20197;-85
2021/12/31 05:20:01;;;;;;;52.43;22.27;;;;;;;;;;4407098;32;20214;-83
2021/12/31 05:22:27;;;;;;;29.27;14.17;;;;;;;;;;4393439;32;20627;-85
2021/12/31 05:24:52;;;;;;;28.83;14.57;;;;;;;;;;4409635;32;20240;-81
2021/12/31 05:27:18;;;;;;;33.77;17.87;;;;;;;;;;4412852;32;20213;-81
2021/12/31 05:29:43;;;;;;;46.30;23.57;;;;;;;;;;4413167;32;20213;-81
2021/12/31 05:32:10;;;;;;;38.60;21.70;;;;;;;;;;4413411;32;20228;-81
2021/12/31 05:34:35;;;;;;;42.77;23.00;;;;;;;;;;4397067;32;20335;-83
2021/12/31 05:37:01;;;;;;;37.33;21.60;;;;;;;;;;4396297;32;20244;-85
2021/12/31 05:39:26;;;;;;;46.90;21.93;;;;;;;;;;4413660;32;20281;-83
2021/12/31 05:41:53;;;;;;;35.17;20.67;;;;;;;;;;4413258;32;20210;-82
2021/12/31 05:44:19;;;;;;;35.43;18.47;;;;;;;;;;4412515;32;20218;-82
2021/12/31 05:46:48;;;;;;;32.80;16.63;;;;;;;;;;4410005;32;20201;-86
2021/12/31 05:49:14;;;;;;;33.73;16.57;;;;;;;;;;4407598;32;20221;-85
2021/12/31 05:51:39;;;;;;;35.53;19.10;;;;;;;;;;4408201;32;20217;-83
2021/12/31 05:54:05;;;;;;;42.13;21.53;;;;;;;;;;4407239;32;20463;-85
2021/12/31 05:56:32;;;;;;;36.73;22.77;;;;;;;;;;4407357;32;20194;-83
2021/12/31 05:58:57;;;;;;;46.03;26.30;;;;;;;;;;4406626;32;20221;-88
2021/12/31 06:01:23;;;;;;;63.60;33.67;;;;;;;;;;4406847;32;20246;-86
2021/12/31 06:03:48;;;;;;;69.50;36.33;;;;;;;;;;4406505;32;20286;-86
2021/12/31 06:06:14;;;;;;;50.07;26.43;;;;;;;;;;4406476;32;20193;-88
2021/12/31 06:08:40;;;;;;;51.03;24.93;;;;;;;;;;4406350;32;20221;-85
2021/12/31 06:11:08;;;;;;;51.77;23.63;;;;;;;;;;4407069;32;20340;-84
2021/12/31 06:13:33;;;;;;;38.13;21.83;;;;;;;;;;4406510;32;20244;-85
2021/12/31 06:15:58;;;;;;;80.23;39.03;;;;;;;;;;4405982;32;20201;-84
2021/12/31 06:18:27;;;;;;;57.93;30.50;;;;;;;;;;4405630;32;20262;-85
2021/12/31 06:20:54;;;;;;;68.10;29.87;;;;;;;;;;4392202;32;20205;-85
2021/12/31 06:23:21;;;;;;;55.63;28.57;;;;;;;;;;4405657;32;20206;-86
2021/12/31 06:25:47;;;;;;;52.83;27.43;;;;;;;;;;4405881;32;20281;-86
2021/12/31 06:28:13;;;;;;;54.60;27.90;;;;;;;;;;4391898;32;20293;-86
2021/12/31 06:30:38;;;;;;;67.27;36.67;;;;;;;;;;4405989;32;20214;-87
2021/12/31 06:33:04;;;;;;;66.10;37.50;;;;;;;;;;4392425;32;20233;-87
2021/12/31 06:35:29;;;;;;;83.87;46.10;;;;;;;;;;4405678;32;20232;-85
2021/12/31 06:37:56;;;;;;;61.70;35.63;;;;;;;;;;4406516;32;20350;-85
2021/12/31 06:40:23;;;;;;;46.93;28.07;;;;;;;;;;4405780;32;20281;-86
2021/12/31 06:42:48;;;;;;;56.77;30.53;;;;;;;;;;4405772;32;20213;-86
2021/12/31 06:45:14;;;;;;;54.40;27.37;;;;;;;;;;4406439;32;20294;-84
2021/12/31 06:47:39;;;;;;;67.47;37.90;;;;;;;;;;4405860;32;20210;-85
2021/12/31 06:50:05;;;;;;;72.70;42.70;;;;;;;;;;4405891;32;20383;-86
2021/12/31 06:52:37;;;;;;;79.37;46.83;;;;;;;;;;4406182;32;20217;-86
2021/12/31 06:55:02;;;;;;;87.17;46.80;;;;;;;;;;4405965;32;20217;-84
2021/12/31 06:57:28;;;;;;;82.40;46.50;;;;;;;;;;4405719;32;20252;-86
2021/12/31 06:59:53;;;;;;;68.37;36.93;;;;;;;;;;4406050;32;20229;-83
2021/12/31 07:02:19;;;;;;;55.63;32.87;;;;;;;;;;4405759;32;20348;-87
2021/12/31 07:04:45;;;;;;;33.00;17.33;;;;;;;;;;4405634;32;20243;-85
2021/12/31 07:07:11;;;;;;;23.63;13.30;;;;;;;;;;4405727;32;20576;-84
2021/12/31 07:09:37;;;;;;;26.70;13.93;;;;;;;;;;4406409;32;20217;-85
2021/12/31 07:12:03;;;;;;;22.67;14.97;;;;;;;;;;4405265;32;20277;-86
2021/12/31 07:14:28;;;;;;;28.43;17.63;;;;;;;;;;4405752;32;20225;-86
2021/12/31 07:16:54;;;;;;;39.37;21.20;;;;;;;;;;4405769;32;20213;-86
2021/12/31 07:19:19;;;;;;;111.23;49.57;;;;;;;;;;4379594;32;20261;-83
2021/12/31 07:21:44;;;;;;;126.67;61.70;;;;;;;;;;4405926;32;20288;-87
2021/12/31 07:24:10;;;;;;;155.17;76.10;;;;;;;;;;4406136;32;20626;-87
2021/12/31 07:26:35;;;;;;;119.60;58.73;;;;;;;;;;4405526;32;20225;-84
2021/12/31 07:29:01;;;;;;;101.73;52.60;;;;;;;;;;4405872;32;20277;-83
2021/12/31 07:31:27;;;;;;;93.77;50.03;;;;;;;;;;4405215;32;20535;-81
2021/12/31 07:33:53;;;;;;;83.53;46.70;;;;;;;;;;4407214;32;20225;-79
2021/12/31 07:36:18;;;;;;;79.90;47.33;;;;;;;;;;4407323;32;20288;-82
2021/12/31 07:38:49;;;;;;;98.63;52.00;;;;;;;;;;4395549;32;20252;-82
2021/12/31 07:41:15;;;;;;;90.47;49.60;;;;;;;;;;4409565;32;20532;-82
2021/12/31 07:43:40;;;;;;;89.70;51.53;;;;;;;;;;4409615;32;20240;-82
2021/12/31 07:48:31;;;;;;;109.60;59.47;;;;;;;;;;4441777;27;20257;-83
2021/12/31 07:50:56;;;;;;;74.23;42.93;;;;;;;;;;4440167;32;20317;-83
2021/12/31 07:53:24;;;;;;;95.00;41.70;;;;;;;;;;4439941;32;20220;-83
2021/12/31 07:55:50;;;;;;;95.30;55.77;;;;;;;;;;4440088;32;20224;-83
2021/12/31 07:58:16;;;;;;;106.60;56.80;;;;;;;;;;4425562;32;20267;-83
2021/12/31 08:00:41;;;;;;;82.27;44.43;;;;;;;;;;4440305;32;20247;-83
2021/12/31 08:03:07;;;;;;;38.13;21.40;;;;;;;;;;4425805;32;20377;-83
2021/12/31 08:05:33;;;;;;;26.03;11.07;;;;;;;;;;4423998;32;20662;-84
2021/12/31 08:08:04;;;;;;;19.63;12.10;;;;;;;;;;4438457;32;20594;-83
2021/12/31 08:10:32;;;;;;;30.97;17.17;;;;;;;;;;4438484;32;20250;-83
2021/12/31 08:13:00;;;;;;;34.73;16.40;;;;;;;;;;4438122;32;20242;-84
2021/12/31 08:15:26;;;;;;;28.83;15.43;;;;;;;;;;4439022;32;20546;-80
2021/12/31 08:17:54;;;;;;;23.93;13.23;;;;;;;;;;4444654;32;20204;-85
2021/12/31 08:20:20;;;;;;;18.20;10.77;;;;;;;;;;4448502;32;20209;-83
2021/12/31 08:22:46;;;;;;;18.60;10.87;;;;;;;;;;4422468;32;20250;-85
2021/12/31 08:25:12;;;;;;;17.80;10.80;;;;;;;;;;4447430;32;20227;-84
2021/12/31 08:27:37;;;;;;;14.47;9.10;;;;;;;;;;4431566;32;20229;-83
2021/12/31 08:30:04;;;;;;;16.70;10.07;;;;;;;;;;4442601;32;20299;-83
2021/12/31 08:32:30;;;;;;;17.20;10.53;;;;;;;;;;4443045;32;20232;-83
2021/12/31 08:34:56;;;;;;;20.47;11.43;;;;;;;;;;4428274;32;20291;-83
2021/12/31 08:37:22;;;;;;;27.57;16.53;;;;;;;;;;4440953;32;20254;-83
2021/12/31 08:39:49;;;;;;;27.60;15.77;;;;;;;;;;4442407;32;20249;-82
2021/12/31 08:42:14;;;;;;;22.60;14.20;;;;;;;;;;4413894;32;20396;-83
2021/12/31 08:44:40;;;;;;;36.43;19.17;;;;;;;;;;4439589;32;20205;-83
2021/12/31 08:47:05;;;;;;;28.93;15.10;;;;;;;;;;4439888;32;20286;-82
2021/12/31 08:49:30;;;;;;;30.20;19.60;;;;;;;;;;4440169;32;20205;-82
2021/12/31 08:51:57;;;;;;;35.40;19.47;;;;;;;;;;4440497;32;20290;-83
2021/12/31 08:54:22;;;;;;;22.17;11.13;;;;;;;;;;4440523;32;20224;-82
2021/12/31 08:56:48;;;;;;;17.47;8.67;;;;;;;;;;4440898;32;20550;-82
2021/12/31 08:59:13;;;;;;;14.87;9.63;;;;;;;;;;4427489;32;20561;-82
2021/12/31 09:01:39;;;;;;;18.23;9.87;;;;;;;;;;4441559;32;20244;-86
2021/12/31 09:04:04;;;;;;;16.00;10.20;;;;;;;;;;4442865;32;20201;-84
2021/12/31 09:06:31;;;;;;;20.07;14.17;;;;;;;;;;4449268;32;20258;-83
2021/12/31 09:09:03;;;;;;;40.13;22.87;;;;;;;;;;4450582;32;20192;-84
2021/12/31 09:11:29;;;;;;;33.47;19.93;;;;;;;;;;4450801;32;20319;-83
2021/12/31 09:13:57;;;;;;;29.70;16.57;;;;;;;;;;4450946;32;20228;-80
2021/12/31 09:16:23;;;;;;;20.60;13.00;;;;;;;;;;4450990;32;20224;-81
2021/12/31 09:18:49;;;;;;;28.00;14.23;;;;;;;;;;4435316;32;20346;-82
2021/12/31 09:21:18;;;;;;;21.63;11.73;;;;;;;;;;4439867;32;20228;-84
2021/12/31 09:23:46;;;;;;;24.33;12.43;;;;;;;;;;4441386;32;20231;-83
2021/12/31 09:26:15;;;;;;;21.83;11.93;;;;;;;;;;4441997;32;20694;-83
2021/12/31 09:28:41;;;;;;;21.00;12.70;;;;;;;;;;4441745;32;20205;-83
2021/12/31 09:31:08;;;;;;;18.43;10.43;;;;;;;;;;4441968;32;20342;-83
2021/12/31 09:33:34;;;;;;;17.10;10.40;;;;;;;;;;4441348;32;20289;-85
2021/12/31 09:36:00;;;;;;;14.47;9.70;;;;;;;;;;4426517;32;20328;-83
2021/12/31 09:38:25;;;;;;;19.47;11.77;;;;;;;;;;4427766;32;20271;-83
2021/12/31 09:40:51;;;;;;;20.07;12.10;;;;;;;;;;4441923;32;20276;-82
2021/12/31 09:43:17;;;;;;;19.87;12.27;;;;;;;;;;4441381;32;20295;-81
2021/12/31 09:45:47;;;;;;;19.13;11.40;;;;;;;;;;4440154;32;20251;-83
2021/12/31 09:48:18;;;;;;;24.17;13.20;;;;;;;;;;4441939;32;20277;-83
2021/12/31 09:50:46;;;;;;;27.77;14.60;;;;;;;;;;4443758;32;20239;-83
2021/12/31 09:53:13;;;;;;;35.80;18.03;;;;;;;;;;4428335;32;20229;-82
2021/12/31 09:55:44;;;;;;;34.30;17.70;;;;;;;;;;4442177;32;20332;-87
2021/12/31 09:58:11;;;;;;;51.37;29.13;;;;;;;;;;4440000;32;20269;-81
2021/12/31 10:00:38;;;;;;;42.80;24.27;;;;;;;;;;4425214;32;20287;-85
2021/12/31 10:03:14;;;;;;;48.00;23.50;;;;;;;;;;4440121;32;20235;-86
2021/12/31 10:05:42;;;;;;;44.63;25.03;;;;;;;;;;4441607;32;20252;-81
2021/12/31 10:08:17;;;;;;;45.90;25.80;;;;;;;;;;4440248;32;20342;-81
2021/12/31 10:10:43;;;;;;;37.60;22.17;;;;;;;;;;4440809;32;20349;-84
2021/12/31 10:13:09;;;;;;;41.30;25.10;;;;;;;;;;4440331;32;20201;-80
2021/12/31 10:15:41;;;;;;;53.43;27.40;;;;;;;;;;4439969;32;20300;-82
2021/12/31 10:18:12;;;;;;;46.93;27.17;;;;;;;;;;4441003;32;20200;-84
2021/12/31 10:20:51;;;;;;;51.17;28.40;;;;;;;;;;4440871;32;20354;-86
2021/12/31 10:23:19;;;;;;;42.97;25.57;;;;;;;;;;4440891;32;20434;-86
2021/12/31 10:25:45;;;;;;;43.63;24.90;;;;;;;;;;4426370;32;20266;-85
2021/12/31 10:28:13;;;;;;;47.40;26.97;;;;;;;;;;4441072;32;20201;-87
2021/12/31 10:30:38;;;;;;;47.57;25.63;;;;;;;;;;4427613;32;20365;-82
2021/12/31 10:33:04;;;;;;;53.27;33.60;;;;;;;;;;4441662;32;20206;-81
2021/12/31 10:35:44;;;;;;;55.27;32.37;;;;;;;;;;4440903;32;20204;-82
2021/12/31 10:38:13;;;;;;;46.00;28.23;;;;;;;;;;4440028;32;20200;-79
2021/12/31 10:40:45;;;;;;;42.33;27.10;;;;;;;;;;4439557;32;20232;-79
2021/12/31 10:43:21;;;;;;;49.50;28.47;;;;;;;;;;4424169;32;20277;-83
2021/12/31 10:46:19;;;;;;;35.70;22.53;;;;;;;;;;4439014;32;20228;-81
2021/12/31 10:48:50;;;;;;;37.87;21.07;;;;;;;;;;4396900;32;20544;-80
2021/12/31 10:51:18;;;;;;;28.97;17.60;;;;;;;;;;4437446;32;20232;-80
2021/12/31 10:53:55;;;;;;;36.13;17.30;;;;;;;;;;4442581;32;20205;-81
2021/12/31 10:56:21;;;;;;;28.27;13.73;;;;;;;;;;4427804;32;20584;-80
2021/12/31 10:58:57;;;;;;;17.77;11.27;;;;;;;;;;4438203;32;20310;-81
2021/12/31 11:01:23;;;;;;;21.80;11.83;;;;;;;;;;4440827;32;20220;-81
2021/12/31 11:03:49;;;;;;;13.70;8.70;;;;;;;;;;4440278;32;20212;-81
2021/12/31 11:06:17;;;;;;;17.13;9.77;;;;;;;;;;4439486;32;20232;-80
2021/12/31 11:08:49;;;;;;;25.33;12.37;;;;;;;;;;4441181;32;20693;-81
2021/12/31 11:11:16;;;;;;;10.17;6.67;;;;;;;;;;4442757;32;20236;-81
2021/12/31 11:13:44;;;;;;;12.80;8.63;;;;;;;;;;4443936;32;20205;-80
2021/12/31 11:16:10;;;;;;;10.17;6.20;;;;;;;;;;4445151;32;20250;-81
2021/12/31 11:18:37;;;;;;;17.27;7.53;;;;;;;;;;4444115;32;20257;-81
2021/12/31 11:21:06;;;;;;;11.70;7.23;;;;;;;;;;4445150;32;20287;-81
2021/12/31 11:23:32;;;;;;;10.60;6.63;;;;;;;;;;4444025;32;20209;-82
2021/12/31 11:26:11;;;;;;;11.03;6.10;;;;;;;;;;4443900;32;20224;-82
2021/12/31 11:28:42;;;;;;;16.57;7.13;;;;;;;;;;4429406;32;20413;-83
2021/12/31 11:31:16;;;;;;;11.83;7.17;;;;;;;;;;4444106;32;20221;-83
2021/12/31 11:33:44;;;;;;;16.63;7.17;;;;;;;;;;4431169;32;20242;-81
2021/12/31 11:36:11;;;;;;;15.93;7.17;;;;;;;;;;4442588;32;20296;-84
2021/12/31 11:38:40;;;;;;;16.00;8.50;;;;;;;;;;4441536;32;20332;-83
2021/12/31 11:41:12;;;;;;;15.17;8.33;;;;;;;;;;4441938;32;20229;-82
2021/12/31 11:43:41;;;;;;;10.90;7.40;;;;;;;;;;4427169;32;20289;-81
2021/12/31 11:46:12;;;;;;;15.90;7.63;;;;;;;;;;4440279;32;20289;-83
2021/12/31 11:48:51;;;;;;;14.43;8.57;;;;;;;;;;4443818;32;20208;-85
2021/12/31 11:51:26;;;;;;;15.77;9.40;;;;;;;;;;4431436;32;20369;-82
2021/12/31 11:54:00;;;;;;;15.97;9.67;;;;;;;;;;4442801;32;20197;-86
2021/12/31 11:56:45;;;;;;;13.17;7.57;;;;;;;;;;4443735;32;20251;-87
2021/12/31 11:59:11;;;;;;;11.83;7.70;;;;;;;;;;4444791;32;20204;-82
2021/12/31 12:01:37;;;;;;;23.00;12.83;;;;;;;;;;4427199;32;20422;-87
2021/12/31 12:04:37;;;;;;;344.53;159.13;;;;;;;;;;4444590;32;20320;-82
2021/12/31 12:07:03;;;;;;;39.53;20.33;;;;;;;;;;4444301;32;20224;-85
2021/12/31 12:09:38;;;;;;;16.30;10.90;;;;;;;;;;4439950;32;20205;-82
2021/12/31 12:12:08;;;;;;;18.33;10.87;;;;;;;;;;4438570;32;20280;-83
2021/12/31 12:14:49;;;;;;;16.23;10.37;;;;;;;;;;4439861;32;20232;-85
2021/12/31 12:17:16;;;;;;;14.23;9.07;;;;;;;;;;4438825;32;20298;-84
2021/12/31 12:19:50;;;;;;;107.80;49.53;;;;;;;;;;4439513;32;20217;-84
2021/12/31 12:22:40;;;;;;;30.27;14.07;;;;;;;;;;4442238;32;20228;-84
2021/12/31 12:25:24;;;;;;;22.17;12.10;;;;;;;;;;4445800;32;20277;-83
2021/12/31 12:27:52;;;;;;;58.30;24.63;;;;;;;;;;4438825;32;20272;-84
2021/12/31 12:30:18;;;;;;;31.47;14.60;;;;;;;;;;4439571;32;20239;-84
2021/12/31 12:35:26;;;;;;;50.40;25.10;;;;;;;;;;4438796;32;20201;-83
2021/12/31 12:38:00;;;;;;;29.87;16.43;;;;;;;;;;4439172;32;20204;-83
2021/12/31 12:40:50;;;;;;;23.77;14.47;;;;;;;;;;4439102;32;20273;-88
2021/12/31 12:43:18;;;;;;;24.60;13.97;;;;;;;;;;4440414;32;20542;-84
2021/12/31 12:45:52;;;;;;;25.70;16.37;;;;;;;;;;4439641;32;20244;-80
2021/12/31 12:48:34;;;;;;;19.23;11.67;;;;;;;;;;4425088;32;20265;-78
2021/12/31 12:51:00;;;;;;;42.03;21.13;;;;;;;;;;4438245;32;20247;-81
2021/12/31 12:53:32;;;;;;;46.23;22.93;;;;;;;;;;4439584;32;20205;-81
2021/12/31 12:56:09;;;;;;;66.33;30.47;;;;;;;;;;4441327;32;20258;-83
2021/12/31 12:58:37;;;;;;;60.50;29.30;;;;;;;;;;4438575;32;20530;-83
2021/12/31 13:01:06;;;;;;;47.07;22.93;;;;;;;;;;4437819;32;20531;-83
2021/12/31 13:03:44;;;;;;;56.13;30.73;;;;;;;;;;4424524;32;20577;-82
2021/12/31 13:06:09;;;;;;;47.97;25.77;;;;;;;;;;4426271;32;20666;-84
2021/12/31 13:08:35;;;;;;;40.97;23.40;;;;;;;;;;4440322;32;20230;-84
2021/12/31 13:11:02;;;;;;;40.00;22.87;;;;;;;;;;4439243;32;20665;-82
2021/12/31 13:13:32;;;;;;;50.93;27.03;;;;;;;;;;4438936;32;20209;-83
2021/12/31 13:15:58;;;;;;;44.77;25.80;;;;;;;;;;4426344;32;20267;-85
2021/12/31 13:18:26;;;;;;;47.13;27.23;;;;;;;;;;4440426;32;20669;-87
2021/12/31 13:21:04;;;;;;;71.77;37.37;;;;;;;;;;4439832;32;20276;-85
2021/12/31 13:23:31;;;;;;;55.40;32.13;;;;;;;;;;4439929;32;20242;-82
2021/12/31 13:25:57;;;;;;;42.80;24.93;;;;;;;;;;4424998;32;20338;-83
2021/12/31 13:28:27;;;;;;;39.70;22.70;;;;;;;;;;4440378;32;20197;-83
2021/12/31 13:31:09;;;;;;;42.40;24.00;;;;;;;;;;4441172;32;20236;-86
2021/12/31 13:33:48;;;;;;;47.97;28.67;;;;;;;;;;4440838;32;20192;-84
2021/12/31 13:36:17;;;;;;;49.37;28.27;;;;;;;;;;4427686;32;20232;-84
2021/12/31 13:39:08;;;;;;;47.67;27.90;;;;;;;;;;4429209;32;20334;-82
2021/12/31 13:41:55;;;;;;;53.30;31.47;;;;;;;;;;4442578;32;20229;-82
2021/12/31 13:44:24;;;;;;;62.47;36.03;;;;;;;;;;4442652;32;20238;-87
2021/12/31 13:46:59;;;;;;;77.10;44.10;;;;;;;;;;4443536;32;20267;-83
2021/12/31 13:49:25;;;;;;;69.83;40.73;;;;;;;;;;4444258;32;20201;-85
2021/12/31 13:51:51;;;;;;;74.53;46.33;;;;;;;;;;4442719;32;20255;-86
2021/12/31 13:54:20;;;;;;;73.43;42.93;;;;;;;;;;4443623;32;20322;-87
2021/12/31 13:56:48;;;;;;;86.07;47.63;;;;;;;;;;4442855;32;20244;-83
2021/12/31 13:59:25;;;;;;;84.10;48.73;;;;;;;;;;4430119;32;20248;-86
2021/12/31 14:02:11;;;;;;;95.20;52.50;;;;;;;;;;4428447;32;20557;-85
2021/12/31 14:04:58;;;;;;;86.57;49.27;;;;;;;;;;4444721;32;20283;-82
2021/12/31 14:07:32;;;;;;;85.43;50.70;;;;;;;;;;4428884;32;20224;-83
2021/12/31 14:10:12;;;;;;;88.07;48.77;;;;;;;;;;4442448;32;20279;-83
2021/12/31 14:13:07;;;;;;;74.20;38.53;;;;;;;;;;4442416;32;20709;-79
2021/12/31 14:15:34;;;;;;;42.20;26.03;;;;;;;;;;4411405;32;20363;-80
2021/12/31 14:18:01;;;;;;;49.10;26.50;;;;;;;;;;4439885;32;20205;-82
2021/12/31 14:20:30;;;;;;;56.53;35.50;;;;;;;;;;4440478;32;20346;-81
2021/12/31 14:22:56;;;;;;;37.63;25.37;;;;;;;;;;4441135;32;20205;-82
2021/12/31 14:25:24;;;;;;;31.33;18.67;;;;;;;;;;4441463;32;20216;-80
2021/12/31 14:27:53;;;;;;;32.27;19.00;;;;;;;;;;4442255;32;20243;-81
2021/12/31 14:30:19;;;;;;;30.90;17.97;;;;;;;;;;4441841;32;20205;-79
2021/12/31 14:32:45;;;;;;;32.50;19.47;;;;;;;;;;4441429;32;20208;-79
2021/12/31 14:35:15;;;;;;;42.57;23.27;;;;;;;;;;4441355;32;20241;-82